KOVS

Boscobel Airport

Boscobel, Wisconsin, USA
METAR KOVS 231053Z AUTO 00000KT 10SM CLR 01/M03 A3028 RMK AO2 SLP257 T00111028
Observed Flight Rules
Oct-23 @ 10:53 UTC (57 minutes ago) Visual Flight Rules
Visibility Clouds
10 miles
  • Clear skies
Temperatures Readings
Current 1°C / 34°F
Dewpoint -3°C / 27°F
Humidity 75%
Altimeter 30.28" Hg
Pressure 1025.7 hPa
Elevation 202
METAR KOVS 231053Z AUTO 00000KT 10SM CLR 01/M03 A3028 RMK AO2 SLP257 T00111028
Observed Flight Rules
Oct-23 @ 10:53 UTC
(57 minutes ago)
VFR
Clouds
  • Clear skies
Temperature Dewpoint
1°C / 34°F -3°C / 27°F
Humidity Altimeter Pressure
75% 30.28" Hg 1025.7 hPa